»·PEaware :: WAT380 KHND-KGCN

WAT380 :: KHND-KGCN

FLIGHT INFORMATION

Flight Status: Arrived
Operator:
Walker Air Transport
More flights by this operator :: More flights under this callsign
Pilot: Spencer M. (27733)
Aircraft: ECLIPSE 500
(EA50)
More flights by this aircraft type
Origin: KHND Henderson
United States
Destination: KGCN Grand Canyon Natl Park
United States
More flights between these airports :: More routes between these airports
Route: +PGS
File this flight plan on PilotEdge
Remarks:
Altitude:
(Current/Filed)
9,500ft
Speed:
(Current/Filed)
300kts
Departed: 11-Nov-20 12:13 PM
Arrived: 11-Nov-20 12:52 PM
Distance/Time
Traveled:
145nm/0:39
Distance/Time
To Go:
Arrived

Flight Plot

Page will automatically refresh every two minutes.

Flight plan parsing failed; only flown route is shown


Map Options




Map Legend


Flown Route
Filed Route
Departure Airport
Arrival Airport
Navaid (VOR, NDB)
Fix

Horizontal Profiles

Position Reports

Time Latitude Longitude Heading Altitude Ground
Speed
11-Nov-20 11:44 35.977331 -115.137427 359 2495ft 0kts
11-Nov-20 11:45 35.978041 -115.137358 301 2495ft 4kts
11-Nov-20 11:46 35.977577 -115.138517 127 2495ft 4kts
11-Nov-20 11:47 35.977958 -115.137808 61 2495ft 1kts
11-Nov-20 11:48 35.977779 -115.137424 196 2495ft 1kts
11-Nov-20 11:49 35.977705 -115.137442 190 2495ft 0kts
11-Nov-20 11:50 35.977705 -115.137442 190 2495ft 0kts
11-Nov-20 11:51 35.977705 -115.137442 190 2495ft 0kts
11-Nov-20 11:52 35.977705 -115.137442 190 2495ft 0kts
11-Nov-20 11:53 35.977705 -115.137442 190 2495ft 0kts
11-Nov-20 11:54 35.977705 -115.137442 190 2495ft 0kts
11-Nov-20 11:55 35.977705 -115.137442 190 2495ft 0kts
11-Nov-20 11:56 35.977705 -115.137442 190 2495ft 0kts
11-Nov-20 11:57 35.977705 -115.137442 190 2495ft 0kts
11-Nov-20 11:58 35.977705 -115.137442 190 2495ft 0kts
11-Nov-20 11:59 35.977705 -115.137442 190 2495ft 0kts
11-Nov-20 12:00 35.977705 -115.137442 190 2495ft 0kts
11-Nov-20 12:01 35.977705 -115.137442 190 2495ft 0kts
11-Nov-20 12:02 35.977705 -115.137442 190 2495ft 0kts
11-Nov-20 12:03 35.977705 -115.137442 190 2495ft 0kts
11-Nov-20 12:04 35.977705 -115.137442 190 2495ft 0kts
11-Nov-20 12:05 35.977687 -115.137443 180 2495ft 1kts
11-Nov-20 12:06 35.976541 -115.136387 181 2495ft 11kts
11-Nov-20 12:07 35.973619 -115.136437 180 2495ft 13kts
11-Nov-20 12:08 35.969481 -115.136483 180 2495ft 14kts
11-Nov-20 12:09 35.965390 -115.136541 181 2495ft 14kts
11-Nov-20 12:10 35.963123 -115.136316 103 2495ft 0kts
11-Nov-20 12:11 35.963123 -115.136316 103 2495ft 0kts
11-Nov-20 12:12 35.966744 -115.135508 1 2495ft 72kts
11-Nov-20 12:13 36.003866 -115.129933 36 3690ft 159kts
11-Nov-20 12:14 36.020078 -115.075770 86 5127ft 205kts
11-Nov-20 12:15 36.010155 -114.997668 101 6778ft 252kts
11-Nov-20 12:16 35.991002 -114.908585 107 7475ft 292kts
11-Nov-20 12:17 35.967272 -114.812771 107 9163ft 292kts
11-Nov-20 12:18 35.940729 -114.715394 109 9471ft 298kts
11-Nov-20 12:19 35.914234 -114.619189 108 9871ft 291kts
11-Nov-20 12:20 35.888397 -114.523682 108 11363ft 300kts
11-Nov-20 12:21 35.860403 -114.418742 108 11536ft 338kts
11-Nov-20 12:22 35.831237 -114.309057 109 11517ft 329kts
11-Nov-20 12:23 35.803320 -114.203376 109 11497ft 321kts
11-Nov-20 12:24 35.775761 -114.098685 109 11495ft 325kts
11-Nov-20 12:25 35.747075 -113.989651 109 11491ft 333kts
11-Nov-20 12:26 35.718452 -113.880661 108 11490ft 336kts
11-Nov-20 12:27 35.689651 -113.770952 108 11528ft 336kts
11-Nov-20 12:28 35.660849 -113.661044 108 11554ft 337kts
11-Nov-20 12:29 35.631903 -113.550266 108 11571ft 338kts
11-Nov-20 12:30 35.644418 -113.438076 72 11504ft 335kts
11-Nov-20 12:31 35.672895 -113.332922 70 11490ft 318kts
11-Nov-20 12:32 35.700195 -113.228269 72 10947ft 304kts
11-Nov-20 12:33 35.722107 -113.129246 74 9843ft 297kts
11-Nov-20 12:34 35.742992 -113.034771 74 9490ft 279kts
11-Nov-20 12:35 35.763573 -112.941916 74 9497ft 282kts
11-Nov-20 12:36 35.784736 -112.846553 74 9505ft 296kts
11-Nov-20 12:37 35.805970 -112.751054 74 9509ft 285kts
11-Nov-20 12:38 35.828160 -112.656834 72 9511ft 287kts
11-Nov-20 12:39 35.851888 -112.563071 72 9500ft 287kts
11-Nov-20 12:41 35.875659 -112.468959 72 9500ft 287kts
11-Nov-20 12:42 35.899508 -112.375109 71 9490ft 282kts
11-Nov-20 12:43 35.924443 -112.287175 71 9202ft 247kts
11-Nov-20 12:44 35.941122 -112.217035 76 8420ft 188kts
11-Nov-20 12:45 35.963898 -112.172440 30 8031ft 127kts
11-Nov-20 12:46 35.988867 -112.150398 68 7596ft 109kts
11-Nov-20 12:47 35.968789 -112.130822 206 6907ft 113kts
11-Nov-20 12:48 35.943865 -112.156464 227 7234ft 127kts
11-Nov-20 12:49 35.960906 -112.172575 21 7832ft 119kts
11-Nov-20 12:50 35.987221 -112.150288 91 7605ft 122kts
11-Nov-20 12:51 35.963093 -112.135593 221 6735ft 111kts
11-Nov-20 12:52 35.949260 -112.150200 220 6607ft 27kts
11-Nov-20 12:53 35.948188 -112.149597 40 6607ft 21kts
11-Nov-20 12:53 35.952130 -112.145441 40 6607ft 19kts
11-Nov-20 12:55 35.955278 -112.141046 48 6607ft 0kts
11-Nov-20 12:56 35.955278 -112.141046 48 6607ft 0kts

Navigation Log

Ident Type
Flight plan parsing failed, navigation log unavailable